createdAt,value
2019-05-18T00:00:35.067Z,100681.81
2019-05-18T00:01:10.937Z,100688.75
2019-05-18T00:01:46.826Z,100696.26
2019-05-18T00:02:22.852Z,100696.26
2019-05-18T00:02:58.736Z,100697.60
2019-05-18T00:03:34.699Z,100701.62
2019-05-18T00:04:10.593Z,100701.87
2019-05-18T00:04:46.648Z,100700.30
2019-05-18T00:05:22.505Z,100708.03
2019-05-18T00:05:58.775Z,100708.03
2019-05-18T00:06:34.829Z,100712.84
2019-05-18T00:07:10.734Z,100712.84
2019-05-18T00:07:46.594Z,100709.89
2019-05-18T00:08:22.492Z,100717.92
2019-05-18T00:08:58.491Z,100717.92
2019-05-18T00:09:34.454Z,100709.09
2019-05-18T00:10:10.295Z,100716.31
2019-05-18T00:10:46.281Z,100707.45
2019-05-18T00:11:22.299Z,100713.88
2019-05-18T00:11:58.176Z,100719.52
2019-05-18T00:12:34.056Z,100718.17
2019-05-18T00:13:09.932Z,100718.17
2019-05-18T00:13:45.822Z,100712.78
2019-05-18T00:14:21.705Z,100712.78
2019-05-18T00:14:57.551Z,100723.03
2019-05-18T00:15:33.457Z,100719.52
2019-05-18T00:16:09.312Z,100717.12
2019-05-18T00:16:45.183Z,100717.12
2019-05-18T00:17:25.344Z,100709.56
2019-05-18T00:17:59.023Z,100720.25
2019-05-18T00:18:34.934Z,100716.24
2019-05-18T00:19:12.105Z,100716.24
2019-05-18T00:19:48.016Z,100719.20
2019-05-18T00:20:23.916Z,100723.48
2019-05-18T00:20:59.886Z,100718.64
2019-05-18T00:21:35.893Z,100728.30
2019-05-18T00:22:11.796Z,100728.30
2019-05-18T00:22:47.682Z,100728.30
2019-05-18T00:23:23.591Z,100732.86
2019-05-18T00:23:59.447Z,100730.12
2019-05-18T00:24:35.279Z,100730.12
2019-05-18T00:25:11.378Z,100733.59
2019-05-18T00:25:47.465Z,100733.59
2019-05-18T00:26:23.413Z,100731.69
2019-05-18T00:26:59.287Z,100733.80
2019-05-18T00:27:35.181Z,100728.66
2019-05-18T00:28:11.140Z,100729.97
2019-05-18T00:28:47.048Z,100732.95
2019-05-18T00:29:22.906Z,100723.51
2019-05-18T00:29:58.811Z,100723.51
2019-05-18T00:30:34.831Z,100735.03
2019-05-18T00:31:10.756Z,100735.03
2019-05-18T00:31:46.716Z,100740.05
2019-05-18T00:32:22.605Z,100740.05
2019-05-18T00:32:58.470Z,100727.90
2019-05-18T00:33:34.498Z,100736.39
2019-05-18T00:34:10.468Z,100729.33
2019-05-18T00:34:46.356Z,100729.33
2019-05-18T00:35:22.238Z,100731.09
2019-05-18T00:35:58.143Z,100731.09
2019-05-18T00:36:33.994Z,100730.55
2019-05-18T00:37:09.896Z,100730.55
2019-05-18T00:37:45.831Z,100728.77
2019-05-18T00:38:21.714Z,100736.53
2019-05-18T00:38:57.636Z,100744.73
2019-05-18T00:39:33.518Z,100744.72
2019-05-18T00:40:09.824Z,100737.23
2019-05-18T00:40:45.693Z,100745.31
2019-05-18T00:41:22.359Z,100745.28
2019-05-18T00:41:58.477Z,100739.96
2019-05-18T00:42:34.376Z,100746.75
2019-05-18T00:43:10.541Z,100747.91
2019-05-18T00:43:46.413Z,100748.47
2019-05-18T00:44:22.311Z,100744.47
2019-05-18T00:44:58.302Z,100752.42
2019-05-18T00:45:34.196Z,100747.05
2019-05-18T00:46:10.097Z,100746.28
2019-05-18T00:46:45.981Z,100750.09
2019-05-18T00:47:21.963Z,100752.27
2019-05-18T00:47:57.785Z,100753.94
2019-05-18T00:48:33.802Z,100755.61
2019-05-18T00:49:09.719Z,100752.69
2019-05-18T00:49:45.605Z,100759.83
2019-05-18T00:50:21.563Z,100757.48
2019-05-18T00:50:57.493Z,100760.80
2019-05-18T00:51:33.518Z,100760.41
2019-05-18T00:52:09.383Z,100760.27
2019-05-18T00:52:45.255Z,100760.58
2019-05-18T00:53:21.355Z,100765.20
2019-05-18T00:53:57.262Z,100766.17
2019-05-18T00:54:33.330Z,100768.69
2019-05-18T00:55:09.452Z,100769.95
2019-05-18T00:55:45.576Z,100776.23
2019-05-18T00:56:22.853Z,100775.67
2019-05-18T00:56:58.738Z,100772.66
2019-05-18T00:57:34.651Z,100776.09
2019-05-18T00:58:10.708Z,100779.98
2019-05-18T00:58:46.778Z,100778.38
2019-05-18T00:59:24.182Z,100778.69
2019-05-18T01:00:00.127Z,100784.66
2019-05-18T01:00:36.186Z,100778.31
2019-05-18T01:01:12.258Z,100784.09
2019-05-18T01:01:48.150Z,100778.34
2019-05-18T01:02:24.212Z,100781.94
2019-05-18T01:03:00.248Z,100776.79
2019-05-18T01:03:39.455Z,100780.02
2019-05-18T01:04:15.471Z,100781.29
2019-05-18T01:04:51.444Z,100783.11
2019-05-18T01:05:27.419Z,100786.51
2019-05-18T01:06:03.323Z,100786.08
2019-05-18T01:06:39.267Z,100789.90
2019-05-18T01:07:15.395Z,100785.59
2019-05-18T01:07:51.293Z,100788.05
2019-05-18T01:08:27.158Z,100792.12
2019-05-18T01:09:04.867Z,100789.77
2019-05-18T01:09:40.771Z,100790.86
2019-05-18T01:10:16.836Z,100792.82
2019-05-18T01:10:52.881Z,100790.73
2019-05-18T01:11:28.891Z,100794.61
2019-05-18T01:12:04.788Z,100793.31
2019-05-18T01:12:40.699Z,100794.78
2019-05-18T01:13:16.895Z,100804.30
2019-05-18T01:13:52.885Z,100792.13
2019-05-18T01:14:28.755Z,100795.70
2019-05-18T01:15:04.657Z,100801.42
2019-05-18T01:15:40.570Z,100793.36
2019-05-18T01:16:16.483Z,100798.03
2019-05-18T01:16:52.460Z,100795.08
2019-05-18T01:17:28.344Z,100795.94
2019-05-18T01:18:04.298Z,100795.94
2019-05-18T01:18:40.367Z,100800.00
2019-05-18T01:19:16.266Z,100787.25
2019-05-18T01:19:52.300Z,100790.46
2019-05-18T01:20:28.285Z,100786.95
2019-05-18T01:21:04.281Z,100792.37
2019-05-18T01:21:40.313Z,100792.37
2019-05-18T01:22:16.326Z,100792.06
2019-05-18T01:22:52.323Z,100792.55
2019-05-18T01:23:28.235Z,100793.43
2019-05-18T01:24:04.228Z,100791.01
2019-05-18T01:24:40.260Z,100790.02
2019-05-18T01:25:16.298Z,100791.38
2019-05-18T01:25:52.250Z,100794.58
2019-05-18T01:26:28.334Z,100794.11
2019-05-18T01:27:04.317Z,100800.02
2019-05-18T01:27:40.167Z,100795.47
2019-05-18T01:28:16.205Z,100796.92
2019-05-18T01:29:01.670Z,100795.94
2019-05-18T01:29:37.535Z,100796.80
2019-05-18T01:30:14.442Z,100794.70
2019-05-18T01:30:50.470Z,100795.31
2019-05-18T01:31:26.485Z,100796.49
2019-05-18T01:32:02.667Z,100796.80
2019-05-18T01:32:38.563Z,100794.67
2019-05-18T01:33:14.474Z,100795.78
2019-05-18T01:33:50.344Z,100800.41
2019-05-18T01:34:26.284Z,100795.53
2019-05-18T01:35:02.240Z,100800.95
2019-05-18T01:35:38.201Z,100796.33
2019-05-18T01:36:14.132Z,100795.53
2019-05-18T01:36:50.038Z,100798.24
2019-05-18T01:37:25.966Z,100803.73
2019-05-18T01:38:01.978Z,100795.09
2019-05-18T01:38:37.959Z,100802.19
2019-05-18T01:39:13.851Z,100809.82
2019-05-18T01:39:49.742Z,100807.11
2019-05-18T01:40:25.932Z,100808.22
2019-05-18T01:41:01.837Z,100806.13
2019-05-18T01:41:37.720Z,100811.54
2019-05-18T01:42:13.712Z,100810.19
2019-05-18T01:42:49.630Z,100808.34
2019-05-18T01:43:25.545Z,100808.09
2019-05-18T01:44:01.426Z,100811.08
2019-05-18T01:44:37.323Z,100805.96
2019-05-18T01:45:17.341Z,100813.23
2019-05-18T01:45:51.038Z,100811.38
2019-05-18T01:46:26.933Z,100807.03
2019-05-18T01:47:02.947Z,100815.16
2019-05-18T01:47:39.198Z,100813.31
2019-05-18T01:48:15.105Z,100810.11
2019-05-18T01:48:51.015Z,100812.81
2019-05-18T01:49:26.911Z,100811.22
2019-05-18T01:50:02.780Z,100811.22
2019-05-18T01:50:38.807Z,100815.03
2019-05-18T01:51:14.674Z,100808.75
2019-05-18T01:51:50.711Z,100808.50
2019-05-18T01:52:26.666Z,100814.73
2019-05-18T01:53:05.265Z,100813.87
2019-05-18T01:53:41.191Z,100814.42
2019-05-18T01:54:17.359Z,100817.38
2019-05-18T01:54:53.309Z,100809.50
2019-05-18T01:55:29.226Z,100816.27
2019-05-18T01:56:05.122Z,100816.52
2019-05-18T01:56:41.033Z,100810.85
2019-05-18T01:57:17.061Z,100820.86
2019-05-18T01:57:52.961Z,100820.58
2019-05-18T01:58:30.387Z,100816.27
2019-05-18T01:59:06.452Z,100814.36
2019-05-18T01:59:42.335Z,100815.16
2019-05-18T02:00:19.925Z,100815.16
2019-05-18T02:00:55.815Z,100815.44
2019-05-18T02:01:31.696Z,100812.73
2019-05-18T02:02:07.763Z,100817.05
2019-05-18T02:02:43.668Z,100818.65
2019-05-18T02:03:19.616Z,100812.16
2019-05-18T02:03:55.497Z,100820.28
2019-05-18T02:04:31.372Z,100810.80
2019-05-18T02:05:07.722Z,100811.35
2019-05-18T02:05:43.640Z,100809.72
2019-05-18T02:06:19.488Z,100808.09
2019-05-18T02:06:55.359Z,100812.42
2019-05-18T02:07:31.275Z,100811.08
2019-05-18T02:08:07.173Z,100814.86
2019-05-18T02:08:43.167Z,100809.69
2019-05-18T02:09:19.166Z,100808.83
2019-05-18T02:09:55.043Z,100814.02
2019-05-18T02:10:31.001Z,100814.91
2019-05-18T02:11:07.096Z,100819.47
2019-05-18T02:11:43.077Z,100821.49
2019-05-18T02:12:18.985Z,100816.56
2019-05-18T02:12:55.016Z,100823.59
2019-05-18T02:13:31.011Z,100824.94
2019-05-18T02:14:07.598Z,100823.90
2019-05-18T02:14:43.707Z,100823.34
2019-05-18T02:15:19.597Z,100829.25
2019-05-18T02:15:55.491Z,100819.20
2019-05-18T02:16:31.495Z,100822.48
2019-05-18T02:17:07.708Z,100822.23
2019-05-18T02:17:43.603Z,100820.81
2019-05-18T02:18:28.838Z,100819.13
2019-05-18T02:18:57.348Z,100818.73
2019-05-18T02:19:33.368Z,100816.54
2019-05-18T02:20:09.975Z,100818.86
2019-05-18T02:20:46.008Z,100814.59
2019-05-18T02:21:21.933Z,100811.67
2019-05-18T02:21:57.819Z,100815.30
2019-05-18T02:22:33.747Z,100816.91
2019-05-18T02:23:09.614Z,100819.22
2019-05-18T02:23:45.604Z,100820.51
2019-05-18T02:24:21.571Z,100820.91
2019-05-18T02:24:57.447Z,100819.94
2019-05-18T02:25:33.367Z,100821.42
2019-05-18T02:26:09.261Z,100818.60
2019-05-18T02:26:45.169Z,100816.87
2019-05-18T02:27:21.045Z,100816.00
2019-05-18T02:27:56.971Z,100817.55
2019-05-18T02:28:33.079Z,100820.17
2019-05-18T02:29:09.075Z,100817.72
2019-05-18T02:29:45.983Z,100814.56
2019-05-18T02:30:22.066Z,100822.48
2019-05-18T02:30:58.084Z,100817.23
2019-05-18T02:31:33.946Z,100813.28
2019-05-18T02:32:09.886Z,100817.34
2019-05-18T02:32:45.867Z,100811.35
2019-05-18T02:33:21.710Z,100809.12
2019-05-18T02:33:57.606Z,100813.91
2019-05-18T02:34:33.466Z,100807.94
2019-05-18T02:35:09.623Z,100808.46
2019-05-18T02:35:45.504Z,100808.04
2019-05-18T02:36:21.530Z,100806.50
2019-05-18T02:36:57.436Z,100805.72
2019-05-18T02:37:33.305Z,100808.47
2019-05-18T02:38:16.127Z,100807.69
2019-05-18T02:38:51.997Z,100809.09
2019-05-18T02:39:28.007Z,100808.00
2019-05-18T02:40:03.964Z,100808.36
2019-05-18T02:40:39.855Z,100803.58
2019-05-18T02:41:15.786Z,100807.11
2019-05-18T02:41:52.028Z,100806.44
2019-05-18T02:42:30.638Z,100811.33
2019-05-18T02:43:05.589Z,100808.85
2019-05-18T02:43:41.546Z,100802.38
2019-05-18T02:44:17.599Z,100808.52
2019-05-18T02:44:53.745Z,100803.17
2019-05-18T02:45:29.604Z,100810.80
2019-05-18T02:46:05.484Z,100804.89
2019-05-18T02:46:41.381Z,100797.38
2019-05-18T02:47:17.237Z,100798.06
2019-05-18T02:47:53.177Z,100799.20
2019-05-18T02:48:47.126Z,100803.86
2019-05-18T02:49:07.869Z,100799.23
2019-05-18T02:49:43.761Z,100793.66
2019-05-18T02:50:19.650Z,100794.03
2019-05-18T02:50:55.548Z,100794.48
2019-05-18T02:51:31.404Z,100794.53
2019-05-18T02:52:07.437Z,100795.95
2019-05-18T02:52:43.335Z,100792.34
2019-05-18T02:53:19.221Z,100796.51
2019-05-18T02:53:55.062Z,100800.14
2019-05-18T02:54:30.904Z,100794.70
2019-05-18T02:55:06.957Z,100794.41
2019-05-18T02:55:42.823Z,100789.37
2019-05-18T02:56:18.781Z,100789.19
2019-05-18T02:56:54.689Z,100786.61
2019-05-18T02:57:30.550Z,100786.34
2019-05-18T02:58:06.452Z,100789.58
2019-05-18T02:58:42.310Z,100785.58
2019-05-18T02:59:18.212Z,100784.53
2019-05-18T02:59:54.049Z,100783.47
2019-05-18T03:00:29.915Z,100784.78
2019-05-18T03:01:05.783Z,100786.41
2019-05-18T03:01:41.678Z,100790.41
2019-05-18T03:02:17.618Z,100787.30
2019-05-18T03:02:53.498Z,100787.32
2019-05-18T03:03:29.402Z,100789.86
2019-05-18T03:04:05.320Z,100788.50
2019-05-18T03:04:41.293Z,100791.69
2019-05-18T03:05:17.192Z,100784.30
2019-05-18T03:05:53.094Z,100784.62
2019-05-18T03:06:28.957Z,100789.59
2019-05-18T03:07:04.931Z,100783.59
2019-05-18T03:07:40.851Z,100789.93
2019-05-18T03:08:16.725Z,100784.22
2019-05-18T03:08:52.613Z,100783.89
2019-05-18T03:09:28.589Z,100786.53
2019-05-18T03:10:04.646Z,100787.49
2019-05-18T03:10:40.874Z,100781.59
2019-05-18T03:11:16.804Z,100788.34
2019-05-18T03:11:52.856Z,100785.76
2019-05-18T03:12:28.854Z,100781.59
2019-05-18T03:13:04.731Z,100785.61
2019-05-18T03:13:40.600Z,100783.06
2019-05-18T03:14:16.524Z,100781.60
2019-05-18T03:14:52.473Z,100783.13
2019-05-18T03:15:28.361Z,100783.00
2019-05-18T03:16:04.387Z,100785.31
2019-05-18T03:16:43.133Z,100783.18
2019-05-18T03:17:19.025Z,100786.28
2019-05-18T03:17:54.868Z,100791.98
2019-05-18T03:18:30.799Z,100782.79
2019-05-18T03:19:09.086Z,100787.72
2019-05-18T03:19:45.316Z,100785.00
2019-05-18T03:20:21.300Z,100792.16
2019-05-18T03:20:57.571Z,100789.70
2019-05-18T03:21:33.580Z,100789.34
2019-05-18T03:22:09.590Z,100789.37
2019-05-18T03:22:45.424Z,100788.24
2019-05-18T03:23:21.385Z,100799.05
2019-05-18T03:23:57.426Z,100793.07
2019-05-18T03:24:33.339Z,100787.05
2019-05-18T03:25:09.316Z,100795.94
2019-05-18T03:25:45.613Z,100796.72
2019-05-18T03:26:21.532Z,100794.24
2019-05-18T03:26:57.444Z,100789.81
2019-05-18T03:27:33.398Z,100787.26
2019-05-18T03:28:09.308Z,100789.89
2019-05-18T03:28:45.173Z,100790.34
2019-05-18T03:29:21.131Z,100793.77
2019-05-18T03:29:57.057Z,100792.89
2019-05-18T03:30:33.028Z,100795.56
2019-05-18T03:31:09.365Z,100793.84
2019-05-18T03:31:45.329Z,100799.91
2019-05-18T03:32:21.323Z,100800.86
2019-05-18T03:32:57.210Z,100796.37
2019-05-18T03:33:33.098Z,100797.25
2019-05-18T03:34:08.991Z,100798.41
2019-05-18T03:34:44.970Z,100803.67
2019-05-18T03:35:20.841Z,100799.98
2019-05-18T03:35:56.732Z,100804.92
2019-05-18T03:36:32.712Z,100799.49
2019-05-18T03:37:08.731Z,100802.84
2019-05-18T03:37:44.610Z,100802.35
2019-05-18T03:38:20.423Z,100804.58
2019-05-18T03:38:56.317Z,100797.55
2019-05-18T03:39:32.261Z,100800.27
2019-05-18T03:40:08.324Z,100795.98
2019-05-18T03:40:44.204Z,100797.66
2019-05-18T03:41:20.403Z,100797.17
2019-05-18T03:41:56.296Z,100799.40
2019-05-18T03:42:32.176Z,100800.75
2019-05-18T03:43:08.013Z,100796.37
2019-05-18T03:43:43.860Z,100800.13
2019-05-18T03:44:19.698Z,100799.73
2019-05-18T03:44:55.562Z,100795.28
2019-05-18T03:45:31.443Z,100799.56
2019-05-18T03:46:07.459Z,100791.36
2019-05-18T03:46:43.341Z,100793.61
2019-05-18T03:47:19.278Z,100794.97
2019-05-18T03:47:55.328Z,100792.01
2019-05-18T03:48:31.168Z,100788.58
2019-05-18T03:49:23.628Z,100788.94
2019-05-18T03:49:44.777Z,100788.42
2019-05-18T03:50:20.707Z,100784.94
2019-05-18T03:50:56.585Z,100781.87
2019-05-18T03:51:32.542Z,100785.17
2019-05-18T03:52:08.429Z,100783.89
2019-05-18T03:52:44.295Z,100781.63
2019-05-18T03:53:20.123Z,100785.30
2019-05-18T03:53:55.966Z,100783.09
2019-05-18T03:54:31.792Z,100786.44
2019-05-18T03:55:07.798Z,100780.45
2019-05-18T03:55:43.632Z,100786.98
2019-05-18T03:56:19.519Z,100786.98
2019-05-18T03:56:55.378Z,100785.13
2019-05-18T03:57:31.251Z,100781.04
2019-05-18T03:58:07.239Z,100786.25
2019-05-18T03:58:43.101Z,100784.36
2019-05-18T03:59:18.965Z,100782.92
2019-05-18T03:59:54.879Z,100784.66
2019-05-18T04:00:30.863Z,100785.36
2019-05-18T04:01:06.698Z,100785.89
2019-05-18T04:01:42.561Z,100784.46
2019-05-18T04:02:18.490Z,100783.09
2019-05-18T04:02:54.385Z,100789.48
2019-05-18T04:03:30.291Z,100793.92
2019-05-18T04:04:06.197Z,100785.09
2019-05-18T04:04:42.063Z,100784.91
2019-05-18T04:05:17.941Z,100791.50
2019-05-18T04:05:54.449Z,100782.00
2019-05-18T04:06:30.356Z,100786.73
2019-05-18T04:07:06.207Z,100785.50
2019-05-18T04:07:42.167Z,100786.31
2019-05-18T04:08:18.101Z,100784.72
2019-05-18T04:08:53.986Z,100783.00
2019-05-18T04:09:31.541Z,100780.61
2019-05-18T04:10:07.893Z,100784.45
2019-05-18T04:10:43.784Z,100781.77
2019-05-18T04:11:19.645Z,100784.09
2019-05-18T04:11:55.493Z,100779.02
2019-05-18T04:12:31.527Z,100783.42
2019-05-18T04:13:07.358Z,100780.09
2019-05-18T04:13:43.254Z,100784.56
2019-05-18T04:14:19.211Z,100785.29
2019-05-18T04:14:55.204Z,100780.17
2019-05-18T04:15:31.176Z,100780.09
2019-05-18T04:16:07.094Z,100779.56
2019-05-18T04:16:43.112Z,100780.97
2019-05-18T04:17:18.961Z,100776.94
2019-05-18T04:17:54.964Z,100782.37
2019-05-18T04:18:32.094Z,100772.31
2019-05-18T04:19:07.947Z,100778.04
2019-05-18T04:19:46.901Z,100777.16
2019-05-18T04:20:21.534Z,100775.51
2019-05-18T04:20:57.466Z,100776.81
2019-05-18T04:21:33.374Z,100775.13
2019-05-18T04:22:09.388Z,100780.23
2019-05-18T04:22:45.269Z,100777.69
2019-05-18T04:23:21.270Z,100772.75
2019-05-18T04:24:00.844Z,100775.46
2019-05-18T04:24:41.291Z,100778.34
2019-05-18T04:25:20.620Z,100774.20
2019-05-18T04:26:10.446Z,100778.18
2019-05-18T04:26:46.411Z,100776.98
2019-05-18T04:27:22.368Z,100782.08
2019-05-18T04:27:58.286Z,100783.05
2019-05-18T04:28:34.289Z,100774.97
2019-05-18T04:29:10.263Z,100783.42
2019-05-18T04:29:49.585Z,100779.19
2019-05-18T04:30:26.127Z,100779.19
2019-05-18T04:31:02.671Z,100778.06
2019-05-18T04:31:39.075Z,100779.98
2019-05-18T04:32:15.638Z,100778.06
2019-05-18T04:32:52.188Z,100769.11
2019-05-18T04:33:28.463Z,100777.83
2019-05-18T04:34:04.438Z,100779.19
2019-05-18T04:34:40.727Z,100775.10
2019-05-18T04:35:18.704Z,100777.34
2019-05-18T04:35:54.659Z,100775.75
2019-05-18T04:36:30.762Z,100777.10
2019-05-18T04:37:06.817Z,100776.55
2019-05-18T04:37:42.850Z,100777.91
2019-05-18T04:38:18.720Z,100779.10
2019-05-18T04:38:54.713Z,100780.22
2019-05-18T04:39:30.699Z,100779.98
2019-05-18T04:40:08.389Z,100781.34
2019-05-18T04:40:44.344Z,100780.86
2019-05-18T04:41:20.327Z,100779.27
2019-05-18T04:41:56.255Z,100780.86
2019-05-18T04:42:32.122Z,100777.34
2019-05-18T04:43:10.086Z,100780.86
2019-05-18T04:43:46.065Z,100776.78
2019-05-18T04:44:21.965Z,100775.42
2019-05-18T04:44:57.968Z,100776.23
2019-05-18T04:45:34.048Z,100772.95
2019-05-18T04:46:10.027Z,100772.39
2019-05-18T04:46:46.420Z,100772.07
2019-05-18T04:47:22.457Z,100770.31
2019-05-18T04:47:58.429Z,100768.63
2019-05-18T04:48:35.120Z,100773.53
2019-05-18T04:49:11.645Z,100767.55
2019-05-18T04:50:03.963Z,100769.61
2019-05-18T04:50:26.121Z,100756.88
2019-05-18T04:51:02.063Z,100759.77
2019-05-18T04:51:37.985Z,100758.88
2019-05-18T04:52:13.999Z,100760.48
2019-05-18T04:52:49.904Z,100751.02
2019-05-18T04:53:25.767Z,100752.24
2019-05-18T04:54:01.736Z,100754.34
2019-05-18T04:54:37.615Z,100746.83
2019-05-18T04:55:13.602Z,100748.16
2019-05-18T04:55:49.574Z,100746.54
2019-05-18T04:56:25.431Z,100748.24
2019-05-18T04:57:01.313Z,100747.08
2019-05-18T04:57:37.201Z,100744.55
2019-05-18T04:58:13.049Z,100745.74
2019-05-18T04:58:48.915Z,100744.02
2019-05-18T04:59:24.790Z,100744.67
2019-05-18T05:00:00.633Z,100741.02
2019-05-18T05:00:36.477Z,100748.72
2019-05-18T05:01:12.356Z,100740.97
2019-05-18T05:01:48.269Z,100737.02
2019-05-18T05:02:24.498Z,100741.20
2019-05-18T05:03:00.385Z,100736.50
2019-05-18T05:03:36.379Z,100738.05
2019-05-18T05:04:12.364Z,100738.30
2019-05-18T05:04:51.808Z,100730.00
2019-05-18T05:05:25.915Z,100733.80
2019-05-18T05:06:01.776Z,100727.83
2019-05-18T05:06:37.640Z,100728.39
2019-05-18T05:07:13.697Z,100723.34
2019-05-18T05:07:49.701Z,100719.44
2019-05-18T05:08:25.559Z,100724.26
2019-05-18T05:09:01.561Z,100718.16
2019-05-18T05:09:37.411Z,100720.83
2019-05-18T05:10:13.627Z,100713.97
2019-05-18T05:10:53.021Z,100712.55
2019-05-18T05:11:29.349Z,100710.20
2019-05-18T05:12:05.805Z,100712.91
2019-05-18T05:12:42.163Z,100711.16
2019-05-18T05:13:18.510Z,100706.13
2019-05-18T05:13:54.349Z,100701.31
2019-05-18T05:14:30.338Z,100707.16
2019-05-18T05:15:06.518Z,100704.84
2019-05-18T05:15:42.389Z,100702.77
2019-05-18T05:16:18.636Z,100696.62
2019-05-18T05:16:54.519Z,100695.98
2019-05-18T05:17:30.437Z,100699.02
2019-05-18T05:18:06.338Z,100692.60
2019-05-18T05:18:42.325Z,100699.23
2019-05-18T05:19:18.182Z,100697.40
2019-05-18T05:19:54.095Z,100700.20
2019-05-18T05:20:30.010Z,100695.41
2019-05-18T05:21:07.516Z,100703.88
2019-05-18T05:21:43.483Z,100702.84
2019-05-18T05:22:19.346Z,100699.38
2019-05-18T05:22:55.258Z,100700.22
2019-05-18T05:23:31.154Z,100696.70
2019-05-18T05:24:07.023Z,100694.31
2019-05-18T05:24:43.118Z,100691.91
2019-05-18T05:25:19.045Z,100695.42
2019-05-18T05:25:54.891Z,100688.39
2019-05-18T05:26:30.844Z,100688.47
2019-05-18T05:27:07.367Z,100686.31
2019-05-18T05:27:43.392Z,100690.39
2019-05-18T05:28:19.276Z,100692.31
2019-05-18T05:28:55.217Z,100681.69
2019-05-18T05:29:31.115Z,100686.80
2019-05-18T05:30:07.086Z,100688.39
2019-05-18T05:30:42.990Z,100685.59
2019-05-18T05:31:18.952Z,100683.26
2019-05-18T05:31:55.084Z,100679.42
2019-05-18T05:32:30.984Z,100679.90
2019-05-18T05:33:06.883Z,100676.92
2019-05-18T05:33:42.779Z,100677.22
2019-05-18T05:34:18.672Z,100679.52
2019-05-18T05:34:54.531Z,100675.58
2019-05-18T05:35:30.686Z,100678.63
2019-05-18T05:36:08.797Z,100678.16
2019-05-18T05:36:44.821Z,100677.50
2019-05-18T05:37:21.633Z,100672.53
2019-05-18T05:37:58.130Z,100675.02
2019-05-18T05:38:34.639Z,100672.39
2019-05-18T05:39:11.958Z,100669.53
2019-05-18T05:39:48.014Z,100673.38
2019-05-18T05:40:24.172Z,100673.38
2019-05-18T05:41:00.114Z,100669.91
2019-05-18T05:41:36.075Z,100670.00
2019-05-18T05:42:11.920Z,100670.33
2019-05-18T05:42:47.909Z,100673.38
2019-05-18T05:43:23.779Z,100672.11
2019-05-18T05:43:59.582Z,100672.11
2019-05-18T05:44:35.474Z,100665.16
2019-05-18T05:45:11.673Z,100665.48
2019-05-18T05:45:47.589Z,100667.87
2019-05-18T05:46:23.511Z,100667.23
2019-05-18T05:46:59.406Z,100672.34
2019-05-18T05:47:35.255Z,100666.91
2019-05-18T05:48:11.087Z,100663.13
2019-05-18T05:48:47.052Z,100665.86
2019-05-18T05:49:22.914Z,100668.34
2019-05-18T05:50:00.266Z,100667.02
2019-05-18T05:50:36.814Z,100669.80
2019-05-18T05:51:12.948Z,100669.99
2019-05-18T05:51:48.855Z,100660.17
2019-05-18T05:52:24.750Z,100667.74
2019-05-18T05:53:00.609Z,100664.59
2019-05-18T05:53:36.470Z,100664.91
2019-05-18T05:54:12.375Z,100662.84
2019-05-18T05:54:48.372Z,100664.65
2019-05-18T05:55:24.252Z,100659.87
2019-05-18T05:56:00.112Z,100661.63
2019-05-18T05:56:35.906Z,100653.23
2019-05-18T05:57:12.428Z,100660.03
2019-05-18T05:57:48.394Z,100647.64
2019-05-18T05:58:24.287Z,100655.02
2019-05-18T05:59:00.382Z,100650.47
2019-05-18T05:59:36.246Z,100651.84
2019-05-18T06:00:12.537Z,100651.63
2019-05-18T06:00:48.446Z,100649.00
2019-05-18T06:01:24.282Z,100646.09
2019-05-18T06:02:00.159Z,100650.39
2019-05-18T06:02:36.014Z,100644.85
2019-05-18T06:03:11.970Z,100645.59
2019-05-18T06:03:47.866Z,100641.98
2019-05-18T06:04:23.744Z,100641.06
2019-05-18T06:04:59.592Z,100640.03
2019-05-18T06:05:35.519Z,100640.17
2019-05-18T06:06:11.423Z,100640.11
2019-05-18T06:06:47.314Z,100639.81
2019-05-18T06:07:23.187Z,100642.81
2019-05-18T06:07:59.105Z,100640.66
2019-05-18T06:08:35.107Z,100638.55
2019-05-18T06:09:11.352Z,100637.75
2019-05-18T06:09:47.234Z,100637.07
2019-05-18T06:10:23.138Z,100636.59
2019-05-18T06:10:59.405Z,100639.86
2019-05-18T06:11:35.253Z,100641.11
2019-05-18T06:12:11.133Z,100637.70
2019-05-18T06:12:47.004Z,100637.58
2019-05-18T06:13:23.038Z,100632.69
2019-05-18T06:13:58.970Z,100633.91
2019-05-18T06:14:34.876Z,100629.81
2019-05-18T06:15:11.207Z,100637.77
2019-05-18T06:15:47.170Z,100633.97
2019-05-18T06:16:23.050Z,100627.91
2019-05-18T06:16:58.940Z,100629.83
2019-05-18T06:17:34.815Z,100625.95
2019-05-18T06:18:10.675Z,100624.81
2019-05-18T06:18:46.562Z,100626.00
2019-05-18T06:19:22.481Z,100625.98
2019-05-18T06:19:58.319Z,100619.30
2019-05-18T06:20:34.187Z,100620.08
2019-05-18T06:21:10.084Z,100620.63
2019-05-18T06:21:45.935Z,100615.71
2019-05-18T06:22:21.802Z,100608.05
2019-05-18T06:22:57.669Z,100612.11
2019-05-18T06:23:33.533Z,100617.53
2019-05-18T06:24:09.374Z,100610.16
2019-05-18T06:24:45.317Z,100616.94
2019-05-18T06:25:21.171Z,100612.82
2019-05-18T06:25:57.130Z,100615.27
2019-05-18T06:26:33.115Z,100612.25
2019-05-18T06:27:09.000Z,100613.48
2019-05-18T06:27:44.939Z,100616.39
2019-05-18T06:28:20.770Z,100610.58
2019-05-18T06:28:56.758Z,100609.61
2019-05-18T06:29:32.635Z,100608.67
2019-05-18T06:30:08.781Z,100614.74
2019-05-18T06:30:44.773Z,100617.80
2019-05-18T06:31:23.047Z,100616.05
2019-05-18T06:31:58.322Z,100613.62
2019-05-18T06:32:34.737Z,100616.87
2019-05-18T06:33:10.612Z,100609.36
2019-05-18T06:33:46.619Z,100613.77
2019-05-18T06:34:22.498Z,100608.66
2019-05-18T06:34:58.354Z,100604.11
2019-05-18T06:35:34.337Z,100609.08
2019-05-18T06:36:10.327Z,100602.70
2019-05-18T06:36:46.198Z,100599.74
2019-05-18T06:37:22.284Z,100601.05
2019-05-18T06:37:58.155Z,100604.16
2019-05-18T06:38:34.032Z,100600.64
2019-05-18T06:39:10.470Z,100602.33
2019-05-18T06:39:46.447Z,100598.58
2019-05-18T06:40:22.317Z,100596.19
2019-05-18T06:40:58.196Z,100594.59
2019-05-18T06:41:34.240Z,100597.36
2019-05-18T06:42:10.939Z,100596.57
2019-05-18T06:42:53.197Z,100592.02
2019-05-18T06:43:29.053Z,100593.14
2019-05-18T06:44:05.055Z,100596.75
2019-05-18T06:44:40.983Z,100586.20
2019-05-18T06:45:16.939Z,100587.89
2019-05-18T06:45:52.834Z,100587.89
2019-05-18T06:46:28.669Z,100582.77
2019-05-18T06:47:04.647Z,100584.70
2019-05-18T06:47:40.549Z,100584.19
2019-05-18T06:48:16.449Z,100582.83
2019-05-18T06:48:52.531Z,100581.23
2019-05-18T06:49:28.627Z,100578.28
2019-05-18T06:50:04.650Z,100579.87
2019-05-18T06:50:40.510Z,100577.40
2019-05-18T06:51:16.504Z,100569.48
2019-05-18T06:51:52.479Z,100566.14
2019-05-18T06:52:28.499Z,100569.33